Главная страница
METAR-TAF:

METAR-TAF

Аэропорты :

Нефтяная платформа

F3-fb-1, Нидерланды

широта: 54-51-14N, долгота: 4-41-36E, высота над уровнем моря: 33 м

Текущие метеонаблюдения

Эта сводка был подготовлена 19 минут назад, в 18:55 UTC
Ветер 18 Узел от юго-юго-восточный
Температура 12°C
Влажность 82%
Давление 1023 hPa

METAR: EHFD 151855Z AUTO 15018KT //// // NCD 12/09 Q1023 RE// W///H///

Время: 20:14 (19:14 UTC)


TAF: отсутствует

Метеонаблюдения и прогнозы для более 4000 аэропортов (сводки METAR и TAF).

Имеющиеся станции представлены на карте желтыми и красными точками.

Чтобы увидеть название станции, наведите на нее мышь.

Затем щелкните, чтобы увидеть метеонаблюдения и метеопрогнозы.

Управление картой: чтобы увеличить масштаб, щелкните зеленые кнопки с черным крестиком; чтобы уменьшить масштаб, щелкните зеленую кнопку с тире; для просмотра соседних карт щелкайте зеленые стрелки.


METAR-TAF: